Time;durP1;ratioP1;P1;durP2;ratioP2;P2;SDS_P1;SDS_P2;PMS_P1;PMS_P2;Temp;Humidity;BMP_temperature;BMP_pressure;BME280_temperature;BME280_humidity;BME280_pressure;Samples;Min_cycle;Max_cycle;Signal;HPM_P1;HPM_P2
2023/12/01 00:00:40;;;;;;;31.30;18.58;;;;;;;5.95;58.80;100298.78;5056778;28;20041;-69
2023/12/01 00:03:09;;;;;;;29.00;17.77;;;;;;;5.91;58.10;100295.69;5065652;28;20116;-69
2023/12/01 00:05:38;;;;;;;34.13;19.08;;;;;;;5.96;57.99;100308.41;5077874;28;20469;-69
2023/12/01 00:08:05;;;;;;;35.05;20.23;;;;;;;5.87;58.55;100311.25;5056573;28;20045;-69
2023/12/01 00:10:33;;;;;;;34.50;19.02;;;;;;;5.85;58.55;100317.81;5051750;28;20114;-69
2023/12/01 00:13:01;;;;;;;33.88;19.23;;;;;;;5.83;58.47;100315.34;5068252;28;20052;-69
2023/12/01 00:15:29;;;;;;;30.17;18.20;;;;;;;5.83;58.00;100318.03;5075963;28;20156;-69
2023/12/01 00:17:57;;;;;;;33.67;20.42;;;;;;;5.81;58.15;100319.25;5069342;28;20076;-69
2023/12/01 00:20:26;;;;;;;35.63;20.38;;;;;;;5.81;58.25;100325.41;5064729;28;20049;-69
2023/12/01 00:22:54;;;;;;;37.70;19.55;;;;;;;5.73;57.57;100306.09;5065670;28;20071;-69
2023/12/01 00:25:22;;;;;;;33.20;19.20;;;;;;;5.74;58.50;100321.91;5062916;28;20045;-70
2023/12/01 00:27:49;;;;;;;39.35;21.27;;;;;;;5.72;58.78;100331.94;5051034;28;20045;-70
2023/12/01 00:30:17;;;;;;;32.80;19.58;;;;;;;5.72;58.44;100331.94;5050543;28;20049;-69
2023/12/01 00:32:46;;;;;;;35.30;19.88;;;;;;;5.73;57.94;100324.78;5066978;28;20053;-69
2023/12/01 00:35:14;;;;;;;36.33;21.35;;;;;;;5.70;58.47;100334.00;5052452;28;20057;-69
2023/12/01 00:37:43;;;;;;;39.28;20.75;;;;;;;5.77;57.97;100334.00;5058572;28;20453;-70
2023/12/01 00:40:12;;;;;;;33.92;19.02;;;;;;;5.76;58.08;100343.84;5067038;28;20125;-70
2023/12/01 00:42:42;;;;;;;33.35;19.88;;;;;;;5.77;57.98;100342.00;5070746;28;20073;-69
2023/12/01 00:45:10;;;;;;;35.03;20.13;;;;;;;5.68;58.34;100335.22;5061902;28;20053;-70
2023/12/01 00:47:38;;;;;;;36.58;20.10;;;;;;;5.65;58.58;100347.13;5060219;28;20435;-70
2023/12/01 00:50:08;;;;;;;36.17;20.55;;;;;;;5.67;58.28;100342.41;5074467;28;20058;-70
2023/12/01 00:52:36;;;;;;;37.55;20.75;;;;;;;5.68;58.52;100346.72;5065068;28;20132;-69
2023/12/01 00:55:06;;;;;;;33.45;19.05;;;;;;;5.66;58.39;100343.41;5063071;28;20756;-70
2023/12/01 00:57:34;;;;;;;33.35;19.55;;;;;;;5.64;58.54;100345.47;5068380;28;20044;-70
2023/12/01 01:00:04;;;;;;;38.60;20.38;;;;;;;5.64;59.06;100347.31;5067261;28;20060;-71
2023/12/01 01:02:32;;;;;;;34.72;19.65;;;;;;;5.63;58.69;100359.00;5059680;28;20045;-70
2023/12/01 01:05:00;;;;;;;37.63;20.20;;;;;;;5.66;58.89;100354.09;5047574;28;20087;-70
2023/12/01 01:07:28;;;;;;;34.85;20.35;;;;;;;5.61;58.42;100348.53;5057858;28;20122;-69
2023/12/01 01:09:57;;;;;;;37.22;20.02;;;;;;;5.65;58.74;100359.63;5059291;28;20040;-70
2023/12/01 01:12:26;;;;;;;33.60;18.73;;;;;;;5.59;58.92;100347.91;5064484;28;20049;-70
2023/12/01 01:14:54;;;;;;;35.55;20.50;;;;;;;5.62;59.18;100352.03;5065262;28;20110;-70
2023/12/01 01:17:21;;;;;;;34.90;19.63;;;;;;;5.60;58.60;100365.56;5070140;28;20049;-70
2023/12/01 01:19:49;;;;;;;37.25;20.30;;;;;;;5.67;58.38;100370.91;5066991;28;20056;-71
2023/12/01 01:22:17;;;;;;;38.00;18.48;;;;;;;5.66;58.29;100363.94;5064181;28;20545;-71
2023/12/01 01:24:45;;;;;;;31.63;18.88;;;;;;;5.65;58.31;100370.28;5063445;28;20049;-70
2023/12/01 01:27:13;;;;;;;40.13;20.48;;;;;;;5.57;57.73;100368.63;5061902;28;20113;-69
2023/12/01 01:29:42;;;;;;;34.88;18.48;;;;;;;5.57;58.20;100366.78;5060893;28;20045;-69
2023/12/01 01:32:11;;;;;;;35.58;20.02;;;;;;;5.53;58.44;100372.72;5063818;28;20045;-70
2023/12/01 01:34:38;;;;;;;36.75;19.58;;;;;;;5.54;58.65;100371.69;5063894;28;20126;-70
2023/12/01 01:37:07;;;;;;;34.33;18.80;;;;;;;5.55;58.60;100374.16;5059559;28;20072;-69
2023/12/01 01:39:35;;;;;;;35.50;20.40;;;;;;;5.55;58.61;100373.34;5062127;28;20104;-70
2023/12/01 01:42:04;;;;;;;40.10;20.63;;;;;;;5.59;58.33;100382.56;5056425;28;20044;-70
2023/12/01 01:44:31;;;;;;;40.10;20.80;;;;;;;5.58;58.38;100378.25;5068176;28;20060;-70
2023/12/01 01:47:02;;;;;;;37.13;19.95;;;;;;;5.57;58.07;100374.78;5059368;28;20395;-70
2023/12/01 01:49:30;;;;;;;38.92;20.52;;;;;;;5.52;58.44;100374.56;5065335;28;20079;-69
2023/12/01 01:52:00;;;;;;;34.92;19.17;;;;;;;5.51;58.45;100382.75;5063940;28;20103;-70
2023/12/01 01:54:28;;;;;;;39.85;20.50;;;;;;;5.51;58.34;100393.41;5061419;28;20605;-71
2023/12/01 01:56:57;;;;;;;41.60;21.67;;;;;;;5.46;58.34;100391.34;5063588;28;20064;-70
2023/12/01 01:59:25;;;;;;;38.70;21.45;;;;;;;5.47;58.29;100381.50;5061613;28;20417;-70
2023/12/01 02:01:52;;;;;;;38.05;20.60;;;;;;;5.42;57.92;100382.09;5061500;28;20041;-71
2023/12/01 02:04:22;;;;;;;41.25;20.75;;;;;;;5.47;58.46;100389.50;5059007;28;20410;-70
2023/12/01 02:06:49;;;;;;;41.28;21.17;;;;;;;5.49;58.09;100393.63;5061622;28;20366;-70
2023/12/01 02:09:17;;;;;;;45.78;23.55;;;;;;;5.48;58.13;100394.63;5063711;28;20060;-70
2023/12/01 02:11:45;;;;;;;40.75;21.42;;;;;;;5.50;58.02;100395.25;5061983;28;20122;-70
2023/12/01 02:14:14;;;;;;;41.63;23.02;;;;;;;5.51;58.35;100393.41;5060014;28;20053;-70
2023/12/01 02:16:46;;;;;;;38.38;20.25;;;;;;;5.47;58.33;100398.31;5050986;28;20045;-71
2023/12/01 02:19:14;;;;;;;41.20;22.02;;;;;;;5.49;58.05;100404.28;5064739;28;20049;-71
2023/12/01 02:21:45;;;;;;;45.22;21.77;;;;;;;5.46;58.26;100393.19;5055851;28;20046;-71
2023/12/01 02:24:13;;;;;;;43.58;21.02;;;;;;;5.46;58.13;100407.34;5059422;28;20137;-71
2023/12/01 02:26:41;;;;;;;45.33;22.92;;;;;;;5.44;58.40;100406.72;5058111;28;20053;-70
2023/12/01 02:29:09;;;;;;;44.90;22.17;;;;;;;5.46;58.00;100401.19;5056906;28;20083;-71
2023/12/01 02:31:37;;;;;;;41.88;22.50;;;;;;;5.37;58.49;100399.72;5056102;28;20041;-71
2023/12/01 02:34:05;;;;;;;41.30;21.48;;;;;;;5.22;58.79;100399.84;5058528;28;20065;-71
2023/12/01 02:36:34;;;;;;;46.83;22.35;;;;;;;5.23;58.64;100404.16;5054196;28;20073;-70
2023/12/01 02:39:03;;;;;;;47.42;23.60;;;;;;;5.23;58.60;100397.00;5045146;28;20058;-71
2023/12/01 02:41:31;;;;;;;48.67;23.00;;;;;;;5.28;58.59;100403.56;5047169;28;20038;-70
2023/12/01 02:43:59;;;;;;;45.05;22.63;;;;;;;5.26;58.44;100398.44;5059389;28;20106;-70
2023/12/01 02:46:26;;;;;;;50.58;24.90;;;;;;;5.29;58.43;100397.22;5053786;28;20054;-70
2023/12/01 02:48:54;;;;;;;48.65;25.55;;;;;;;5.27;58.59;100400.06;5059666;28;20054;-71
2023/12/01 02:51:24;;;;;;;48.65;24.35;;;;;;;5.26;58.57;100397.63;5051711;28;20378;-70
2023/12/01 02:53:52;;;;;;;49.17;24.48;;;;;;;5.29;58.74;100402.53;5061839;28;20075;-70
2023/12/01 02:56:21;;;;;;;47.42;24.80;;;;;;;5.23;58.68;100401.50;5067206;28;20044;-70
2023/12/01 02:58:49;;;;;;;56.50;26.63;;;;;;;5.25;58.85;100399.47;5062114;28;20104;-70
2023/12/01 03:01:17;;;;;;;50.28;24.67;;;;;;;5.28;58.57;100404.38;5057646;28;20045;-70
2023/12/01 03:03:45;;;;;;;48.22;24.40;;;;;;;5.27;58.61;100408.06;5057216;28;20049;-71
2023/12/01 03:06:13;;;;;;;52.35;26.23;;;;;;;5.30;58.46;100406.84;5055219;28;20152;-70
2023/12/01 03:08:40;;;;;;;55.55;26.67;;;;;;;5.30;58.53;100402.34;5054622;28;20045;-70
2023/12/01 03:11:08;;;;;;;53.85;24.60;;;;;;;5.26;59.11;100405.59;5059814;28;20451;-70
2023/12/01 03:13:37;;;;;;;51.63;25.42;;;;;;;5.24;58.86;100398.63;5052050;28;20049;-70
2023/12/01 03:16:06;;;;;;;54.40;25.67;;;;;;;5.29;58.91;100397.22;5061070;28;20441;-70
2023/12/01 03:18:35;;;;;;;49.58;24.80;;;;;;;5.29;58.77;100405.22;5061468;28;20048;-70
2023/12/01 03:21:03;;;;;;;50.28;25.05;;;;;;;5.29;58.78;100400.69;5057646;28;20099;-69
2023/12/01 03:23:31;;;;;;;47.47;25.25;;;;;;;5.27;59.02;100404.59;5061762;28;20041;-70
2023/12/01 03:25:59;;;;;;;54.72;27.38;;;;;;;5.25;58.78;100396.78;5063106;28;20049;-70
2023/12/01 03:28:26;;;;;;;50.97;25.90;;;;;;;5.26;58.59;100394.94;5058100;28;20041;-70
2023/12/01 03:30:55;;;;;;;52.30;26.20;;;;;;;5.25;58.93;100410.13;5058357;28;20049;-70
2023/12/01 03:33:23;;;;;;;55.20;25.75;;;;;;;5.22;58.76;100405.19;5060284;28;20088;-70
2023/12/01 03:35:51;;;;;;;54.35;25.70;;;;;;;5.15;58.76;100407.03;5078921;28;20053;-71
2023/12/01 03:38:19;;;;;;;51.95;25.42;;;;;;;5.16;59.01;100404.16;5064781;28;20143;-70
2023/12/01 03:40:47;;;;;;;53.88;26.67;;;;;;;5.18;59.44;100406.63;5065520;28;20052;-70
2023/12/01 03:43:14;;;;;;;54.35;26.67;;;;;;;5.19;58.93;100411.75;5060064;28;20045;-70
2023/12/01 03:45:42;;;;;;;59.97;27.65;;;;;;;5.20;58.93;100415.25;5067462;28;20048;-71
2023/12/01 03:48:12;;;;;;;52.20;25.08;;;;;;;5.18;59.19;100418.09;5051990;28;20057;-71
2023/12/01 03:50:39;;;;;;;56.00;26.55;;;;;;;5.21;58.82;100419.53;5063109;28;20049;-71
2023/12/01 03:53:07;;;;;;;55.75;26.58;;;;;;;5.21;59.05;100417.69;5064752;28;20045;-71
2023/12/01 03:55:35;;;;;;;55.53;26.75;;;;;;;5.17;59.07;100424.44;5066484;28;20114;-71
2023/12/01 03:58:03;;;;;;;59.15;27.20;;;;;;;5.12;59.41;100420.72;5064296;28;20053;-70
2023/12/01 04:00:32;;;;;;;55.65;27.70;;;;;;;5.15;59.41;100425.66;5059505;28;20046;-71
2023/12/01 04:03:01;;;;;;;61.50;30.67;;;;;;;5.15;59.54;100428.31;5051969;28;20048;-71
2023/12/01 04:05:30;;;;;;;61.80;30.38;;;;;;;5.14;59.67;100430.16;5065375;28;20060;-71
2023/12/01 04:07:58;;;;;;;56.95;28.00;;;;;;;5.16;59.36;100421.97;5051505;28;20050;-71
2023/12/01 04:10:27;;;;;;;69.03;30.33;;;;;;;5.17;59.51;100439.59;5065671;28;20072;-71
2023/12/01 04:12:56;;;;;;;62.75;29.80;;;;;;;5.18;59.66;100449.25;5061585;28;20128;-71
2023/12/01 04:15:26;;;;;;;63.58;29.27;;;;;;;5.18;59.45;100450.06;5065535;28;20464;-71
2023/12/01 04:17:55;;;;;;;67.63;29.23;;;;;;;5.13;59.37;100454.34;5065424;28;20044;-71
2023/12/01 04:20:25;;;;;;;62.97;29.13;;;;;;;5.04;59.39;100451.00;5063219;28;20080;-71
2023/12/01 04:22:57;;;;;;;66.47;30.33;;;;;;;5.04;59.86;100452.84;5053761;28;20046;-71
2023/12/01 04:25:25;;;;;;;66.03;30.58;;;;;;;5.09;59.09;100461.06;5046962;28;20050;-71
2023/12/01 04:27:54;;;;;;;69.03;32.17;;;;;;;5.11;59.41;100459.03;5055265;28;20363;-71
2023/12/01 04:30:23;;;;;;;65.93;30.75;;;;;;;5.08;59.45;100464.75;5059600;28;20059;-71
2023/12/01 04:32:53;;;;;;;65.15;29.55;;;;;;;5.11;59.34;100469.69;5049925;28;20049;-69
2023/12/01 04:35:25;;;;;;;64.25;29.45;;;;;;;5.09;59.40;100469.06;5056598;28;20052;-70
2023/12/01 04:37:55;;;;;;;59.80;28.58;;;;;;;5.02;59.86;100458.38;5064566;28;20068;-70
2023/12/01 04:40:24;;;;;;;62.20;29.42;;;;;;;5.10;59.71;100470.72;5063546;28;20045;-70
2023/12/01 04:42:53;;;;;;;67.78;30.70;;;;;;;5.08;59.83;100468.25;5056049;28;20053;-70
2023/12/01 04:45:24;;;;;;;65.10;28.40;;;;;;;5.09;59.87;100479.72;5048993;28;20048;-71
2023/12/01 04:47:54;;;;;;;64.97;30.67;;;;;;;5.07;59.53;100481.75;5062985;28;20040;-71
2023/12/01 04:50:24;;;;;;;61.53;27.48;;;;;;;5.07;59.56;100484.41;5068005;28;20097;-71
2023/12/01 04:52:53;;;;;;;58.67;27.33;;;;;;;5.11;59.56;100480.34;5070784;28;20045;-71
2023/12/01 04:55:25;;;;;;;65.10;28.25;;;;;;;5.11;58.99;100483.00;5059290;28;20083;-71
2023/12/01 04:57:54;;;;;;;55.22;26.38;;;;;;;5.09;59.13;100480.53;5064506;28;20121;-70
2023/12/01 05:00:25;;;;;;;59.80;26.67;;;;;;;5.00;59.52;100481.72;5070321;28;20049;-71
2023/12/01 05:02:55;;;;;;;56.08;26.83;;;;;;;5.02;58.90;100482.34;5065240;28;20048;-71
2023/12/01 05:05:24;;;;;;;57.65;27.40;;;;;;;5.02;59.24;100486.84;5067632;28;20079;-72
2023/12/01 05:07:57;;;;;;;53.45;25.15;;;;;;;5.03;58.98;100486.66;5044865;28;20136;-72
2023/12/01 05:10:28;;;;;;;63.72;28.35;;;;;;;5.03;59.11;100494.63;5061207;28;20561;-71
2023/12/01 05:12:59;;;;;;;52.53;25.92;;;;;;;5.04;59.01;100498.13;5078230;28;20143;-70
2023/12/01 05:15:30;;;;;;;52.53;25.77;;;;;;;5.01;59.31;100494.00;5076092;28;20051;-71
2023/12/01 05:17:59;;;;;;;53.45;25.02;;;;;;;5.03;59.05;100507.94;5058167;28;20049;-71
2023/12/01 05:20:28;;;;;;;55.90;26.20;;;;;;;5.01;59.20;100509.97;5067412;28;20045;-71
2023/12/01 05:22:59;;;;;;;59.88;27.25;;;;;;;5.04;59.10;100503.44;5068056;28;20041;-70
2023/12/01 05:25:32;;;;;;;51.53;24.70;;;;;;;5.04;58.93;100509.59;5063461;28;20048;-71
2023/12/01 05:28:02;;;;;;;55.33;26.58;;;;;;;4.98;59.11;100509.56;5063738;28;20132;-70
2023/12/01 05:30:32;;;;;;;50.65;25.63;;;;;;;4.97;58.78;100505.25;5062485;28;20045;-70
2023/12/01 05:33:00;;;;;;;52.92;25.67;;;;;;;4.96;58.60;100509.75;5065478;28;20052;-71
2023/12/01 05:35:29;;;;;;;53.97;23.88;;;;;;;4.99;58.39;100514.69;5061711;28;20107;-71
2023/12/01 05:37:58;;;;;;;48.03;23.30;;;;;;;5.00;58.36;100513.66;5056591;28;20407;-71
2023/12/01 05:40:28;;;;;;;49.20;23.70;;;;;;;4.96;58.58;100515.06;5054797;28;20056;-71
2023/12/01 05:42:57;;;;;;;50.55;23.35;;;;;;;4.94;58.61;100518.94;5077463;28;20048;-71
2023/12/01 05:45:27;;;;;;;50.10;24.58;;;;;;;4.98;58.52;100518.38;5065875;28;20068;-69
2023/12/01 05:47:56;;;;;;;48.30;24.55;;;;;;;4.93;58.56;100515.47;5074808;28;20055;-71
2023/12/01 05:50:25;;;;;;;49.53;24.73;;;;;;;4.89;58.75;100524.84;5053159;28;20151;-71
2023/12/01 05:52:54;;;;;;;51.05;25.02;;;;;;;4.99;57.98;100535.97;5058828;28;20083;-66
2023/12/01 05:55:23;;;;;;;43.63;22.85;;;;;;;5.00;58.26;100532.31;5063711;28;20052;-72
2023/12/01 05:57:53;;;;;;;46.20;23.30;;;;;;;4.94;58.63;100533.06;5083628;28;20044;-69
2023/12/01 06:00:23;;;;;;;47.75;24.40;;;;;;;4.92;58.84;100532.44;5075090;28;20063;-69
2023/12/01 06:02:52;;;;;;;49.25;24.95;;;;;;;4.95;58.25;100540.06;5075863;28;20048;-71
2023/12/01 06:05:21;;;;;;;44.97;21.95;;;;;;;5.03;58.10;100537.25;5056195;28;20042;-71
2023/12/01 06:07:51;;;;;;;46.25;22.02;;;;;;;5.16;57.84;100534.69;5062369;28;20045;-71
2023/12/01 06:10:19;;;;;;;45.25;22.95;;;;;;;5.30;57.45;100534.75;5066838;28;20204;-72
2023/12/01 06:12:48;;;;;;;52.60;23.02;;;;;;;5.49;57.14;100539.38;5063331;28;20076;-71
2023/12/01 06:15:19;;;;;;;40.50;21.73;;;;;;;5.59;56.55;100541.69;5063487;28;20060;-70
2023/12/01 06:17:49;;;;;;;44.00;22.60;;;;;;;5.70;56.01;100541.94;5062821;28;20081;-70
2023/12/01 06:20:19;;;;;;;40.67;21.10;;;;;;;5.78;56.01;100546.28;5065115;28;20045;-70
2023/12/01 06:22:48;;;;;;;45.15;21.63;;;;;;;5.77;55.96;100552.66;5070134;28;20056;-71
2023/12/01 06:25:16;;;;;;;40.47;21.10;;;;;;;5.74;55.36;100543.19;5063945;28;20454;-70
2023/12/01 06:27:45;;;;;;;44.20;22.73;;;;;;;5.65;56.02;100546.22;5061664;28;20056;-71
2023/12/01 06:30:15;;;;;;;40.42;20.63;;;;;;;5.56;56.26;100549.06;5061342;28;20053;-70
2023/12/01 06:32:45;;;;;;;38.60;20.67;;;;;;;5.54;56.54;100555.59;5061753;28;20049;-71
2023/12/01 06:35:15;;;;;;;46.05;21.73;;;;;;;5.56;56.07;100551.72;5058043;28;20041;-68
2023/12/01 06:37:44;;;;;;;35.90;20.08;;;;;;;5.69;55.52;100550.16;5059256;28;20056;-66
2023/12/01 06:40:17;;;;;;;36.22;20.08;;;;;;;5.83;55.39;100558.00;5063196;28;20075;-67
2023/12/01 06:42:48;;;;;;;34.38;19.45;;;;;;;6.03;54.97;100559.97;5060318;28;20053;-67
2023/12/01 06:45:17;;;;;;;35.88;19.63;;;;;;;6.23;54.41;100558.22;5055610;28;20041;-67
2023/12/01 06:47:48;;;;;;;35.63;18.92;;;;;;;6.36;54.09;100563.59;5062605;28;20045;-66
2023/12/01 06:50:18;;;;;;;38.58;21.27;;;;;;;6.47;54.28;100556.84;5064519;28;20309;-67
2023/12/01 06:52:48;;;;;;;34.83;19.15;;;;;;;6.62;53.99;100557.47;5060924;28;20422;-68
2023/12/01 06:55:17;;;;;;;39.28;20.00;;;;;;;6.69;53.39;100552.97;4709165;28;9999647;-67
2023/12/01 06:57:47;;;;;;;38.00;19.45;;;;;;;6.81;53.03;100570.03;5060417;28;20056;-67
2023/12/01 07:00:29;;;;;;;35.15;19.38;;;;;;;6.79;52.67;100565.94;5063420;28;20429;-66
2023/12/01 07:03:02;;;;;;;35.72;19.00;;;;;;;6.84;52.73;100571.47;5055932;28;20060;-65
2023/12/01 07:05:31;;;;;;;40.65;18.90;;;;;;;6.83;52.38;100576.00;5060709;28;20053;-66
2023/12/01 07:08:00;;;;;;;37.83;20.15;;;;;;;6.79;52.40;100568.59;5069561;28;20044;-71
2023/12/01 07:10:28;;;;;;;36.80;18.90;;;;;;;6.85;52.46;100579.28;5061100;28;20056;-65
2023/12/01 07:12:57;;;;;;;35.75;19.80;;;;;;;6.86;52.19;100580.09;5058403;28;20052;-64
2023/12/01 07:15:25;;;;;;;33.50;18.95;;;;;;;6.67;52.74;100584.41;5019247;28;20429;-70
2023/12/01 07:17:55;;;;;;;39.40;18.77;;;;;;;6.48;52.48;100564.63;5028413;28;20054;-75
2023/12/01 07:20:25;;;;;;;36.88;19.23;;;;;;;6.55;52.75;100574.50;5016544;28;20045;-76
2023/12/01 07:22:54;;;;;;;34.85;18.95;;;;;;;6.42;53.64;100584.13;5033597;28;20141;-74
2023/12/01 07:25:22;;;;;;;38.70;19.52;;;;;;;6.26;53.79;100586.34;5026245;28;20049;-75
2023/12/01 07:27:55;;;;;;;35.45;18.25;;;;;;;6.13;54.35;100584.44;5024942;28;20117;-76
2023/12/01 07:30:23;;;;;;;39.92;19.48;;;;;;;6.00;54.37;100589.72;5024520;28;20526;-75
2023/12/01 07:32:52;;;;;;;37.28;18.35;;;;;;;5.87;54.57;100585.94;5028334;28;20050;-75
2023/12/01 07:35:21;;;;;;;32.53;18.08;;;;;;;5.74;55.18;100588.53;5017009;28;20038;-76
2023/12/01 07:37:52;;;;;;;37.85;18.92;;;;;;;5.66;55.28;100587.88;5025399;28;20050;-75
2023/12/01 07:40:23;;;;;;;34.97;19.10;;;;;;;5.61;55.79;100585.78;5020428;28;20052;-75
2023/12/01 07:42:53;;;;;;;33.70;18.92;;;;;;;5.53;56.02;100573.44;5023803;28;20064;-74
2023/12/01 07:45:23;;;;;;;30.92;17.27;;;;;;;5.52;56.19;100577.13;5016255;28;20066;-76
2023/12/01 07:47:52;;;;;;;38.28;18.48;;;;;;;5.47;56.08;100589.38;5030282;28;20141;-74
2023/12/01 07:50:21;;;;;;;34.47;16.50;;;;;;;5.41;56.29;100569.66;5025655;28;20042;-76
2023/12/01 07:52:51;;;;;;;36.70;19.08;;;;;;;5.39;56.23;100585.03;5016164;28;20118;-75
2023/12/01 07:55:20;;;;;;;35.80;17.95;;;;;;;5.30;56.71;100572.88;5023914;28;20042;-75
2023/12/01 07:57:48;;;;;;;34.38;18.00;;;;;;;5.33;56.54;100576.97;5024605;28;20068;-73
2023/12/01 08:00:17;;;;;;;31.80;18.30;;;;;;;5.29;56.73;100583.72;5033181;28;20518;-75
2023/12/01 08:02:47;;;;;;;37.55;20.10;;;;;;;5.29;56.96;100581.06;5017110;28;20047;-76
2023/12/01 08:05:16;;;;;;;35.92;18.75;;;;;;;5.26;57.04;100587.59;5022256;28;20045;-73
2023/12/01 08:07:47;;;;;;;32.95;17.27;;;;;;;5.24;56.89;100578.97;5021664;28;20463;-70
2023/12/01 08:10:16;;;;;;;34.95;18.00;;;;;;;5.23;57.07;100583.47;5014477;28;20041;-70
2023/12/01 08:12:46;;;;;;;32.92;17.23;;;;;;;5.21;57.30;100582.84;5022225;28;20041;-71
2023/12/01 08:15:15;;;;;;;33.78;18.52;;;;;;;5.21;57.20;100590.84;5052591;28;20057;-70
2023/12/01 08:17:45;;;;;;;35.33;17.75;;;;;;;5.18;57.27;100593.09;5065961;28;20763;-71
2023/12/01 08:20:14;;;;;;;35.78;17.58;;;;;;;5.19;57.04;100590.25;5063762;28;20052;-70
2023/12/01 08:22:43;;;;;;;32.03;16.58;;;;;;;5.17;56.68;100594.94;5067696;28;20047;-70
2023/12/01 08:25:12;;;;;;;35.42;16.95;;;;;;;5.13;57.28;100596.34;5063281;28;20108;-70
2023/12/01 08:27:42;;;;;;;34.40;17.23;;;;;;;5.14;56.92;100594.50;5067008;28;20044;-69
2023/12/01 08:30:11;;;;;;;34.67;16.75;;;;;;;5.15;57.26;100604.97;5063349;28;20381;-70
2023/12/01 08:32:46;;;;;;;31.50;16.27;;;;;;;5.20;56.80;100607.03;5064300;28;20049;-70
2023/12/01 08:35:15;;;;;;;34.28;16.95;;;;;;;5.16;56.83;100608.44;5063664;28;20098;-71
2023/12/01 08:37:43;;;;;;;35.42;17.85;;;;;;;5.11;57.03;100603.69;5063255;28;20056;-70
2023/12/01 08:40:12;;;;;;;30.85;16.02;;;;;;;5.15;57.25;100612.13;5065001;28;20049;-71
2023/12/01 08:42:43;;;;;;;31.50;16.63;;;;;;;5.08;57.35;100614.72;5064795;28;20568;-71
2023/12/01 08:45:11;;;;;;;33.92;17.08;;;;;;;5.09;57.32;100618.22;5056571;28;20055;-70
2023/12/01 08:47:40;;;;;;;33.30;15.85;;;;;;;5.14;57.37;100621.13;5058531;28;20056;-71
2023/12/01 08:50:10;;;;;;;35.15;17.45;;;;;;;5.27;56.87;100615.88;5064400;28;20057;-70
2023/12/01 08:52:38;;;;;;;33.85;16.58;;;;;;;5.38;56.53;100619.88;5063259;28;20067;-70
2023/12/01 08:55:07;;;;;;;31.23;17.50;;;;;;;5.50;56.41;100618.31;5061570;28;20037;-71
2023/12/01 08:57:35;;;;;;;34.80;18.15;;;;;;;5.36;55.93;100622.72;5061815;28;20149;-65
2023/12/01 09:00:06;;;;;;;31.88;16.70;;;;;;;5.53;55.79;100626.75;5064087;28;20048;-79
2023/12/01 09:02:34;;;;;;;34.97;18.48;;;;;;;5.69;55.36;100619.47;5066493;28;20080;-80
2023/12/01 09:05:04;;;;;;;37.20;18.27;;;;;;;5.93;55.20;100623.53;5058152;28;20073;-76
2023/12/01 09:07:32;;;;;;;33.67;17.00;;;;;;;6.14;54.71;100629.59;4713001;28;10000468;-75
2023/12/01 09:10:00;;;;;;;33.17;17.83;;;;;;;6.28;53.92;100629.66;5061464;28;20388;-75
2023/12/01 09:12:28;;;;;;;35.17;17.73;;;;;;;6.48;54.12;100626.03;5057289;28;20046;-75
2023/12/01 09:14:56;;;;;;;32.78;17.88;;;;;;;6.68;53.68;100633.28;5061602;28;20057;-74
2023/12/01 09:17:25;;;;;;;37.70;18.30;;;;;;;6.78;53.23;100631.88;5062034;28;20053;-76
2023/12/01 09:19:53;;;;;;;31.80;17.52;;;;;;;6.87;52.36;100632.50;5052101;28;20056;-81
2023/12/01 09:22:21;;;;;;;31.98;15.50;;;;;;;6.92;52.87;100640.75;5071309;28;20075;-73
2023/12/01 09:24:49;;;;;;;35.42;17.35;;;;;;;6.90;52.76;100640.13;5053735;28;20514;-78
2023/12/01 09:27:17;;;;;;;30.98;17.58;;;;;;;6.84;53.00;100646.28;5056048;28;20053;-75
2023/12/01 09:29:46;;;;;;;34.97;16.40;;;;;;;6.69;53.92;100638.44;5063767;28;20071;-76
2023/12/01 09:32:14;;;;;;;31.92;17.13;;;;;;;6.50;53.59;100649.88;5049268;28;20052;-77
2023/12/01 09:34:43;;;;;;;35.85;18.13;;;;;;;6.32;54.37;100650.41;5062172;28;20045;-73
2023/12/01 09:37:12;;;;;;;31.67;18.25;;;;;;;6.16;55.45;100648.91;5050023;28;20045;-72
2023/12/01 09:39:41;;;;;;;32.92;17.77;;;;;;;6.02;55.89;100644.53;5071877;28;20061;-70
2023/12/01 09:42:12;;;;;;;34.10;17.00;;;;;;;5.97;55.61;100654.94;5049004;28;20493;-69
2023/12/01 09:44:41;;;;;;;36.33;16.75;;;;;;;5.88;55.84;100664.09;5059559;28;20040;-71
2023/12/01 09:47:12;;;;;;;31.88;16.95;;;;;;;5.83;56.17;100663.88;5063902;28;20063;-74
2023/12/01 09:49:40;;;;;;;32.47;17.45;;;;;;;5.76;56.89;100673.66;5063362;28;20059;-71
2023/12/01 09:52:09;;;;;;;33.70;18.15;;;;;;;5.75;56.32;100664.84;5060816;28;20455;-67
2023/12/01 09:54:38;;;;;;;29.60;15.43;;;;;;;5.71;57.00;100668.09;5057749;28;20052;-66
2023/12/01 09:57:07;;;;;;;27.98;15.15;;;;;;;5.71;56.82;100668.91;5061480;28;20068;-70
2023/12/01 09:59:38;;;;;;;27.83;14.98;;;;;;;5.64;56.82;100664.53;5057787;28;20045;-70
2023/12/01 10:02:06;;;;;;;28.55;15.27;;;;;;;5.61;56.62;100667.59;5058749;28;20080;-70
2023/12/01 10:04:34;;;;;;;30.45;15.60;;;;;;;5.54;56.63;100665.72;5053378;28;20099;-70
2023/12/01 10:07:04;;;;;;;30.38;16.25;;;;;;;5.53;56.84;100665.91;5056795;28;20325;-71
2023/12/01 10:09:33;;;;;;;31.98;16.42;;;;;;;5.49;56.99;100661.97;5062220;28;20099;-70
2023/12/01 10:12:09;;;;;;;27.88;14.95;;;;;;;5.45;56.77;100650.88;5047574;28;20056;-70
2023/12/01 10:14:37;;;;;;;29.63;14.85;;;;;;;5.53;57.17;100657.91;5050761;28;20056;-70
2023/12/01 10:17:07;;;;;;;26.58;13.80;;;;;;;5.48;56.99;100647.00;5057011;28;20214;-71
2023/12/01 10:19:45;;;;;;;25.60;14.25;;;;;;;5.51;57.07;100650.09;5055910;28;20053;-71
2023/12/01 10:22:13;;;;;;;25.05;13.32;;;;;;;5.64;57.20;100657.38;5057753;28;20110;-70
2023/12/01 10:24:53;;;;;;;26.23;14.00;;;;;;;5.84;56.34;100661.00;5061204;28;20075;-70
2023/12/01 10:27:21;;;;;;;24.15;13.05;;;;;;;6.00;56.20;100664.41;5052984;28;20055;-72
2023/12/01 10:29:49;;;;;;;23.90;13.07;;;;;;;6.19;56.02;100661.03;5057868;28;20068;-69
2023/12/01 10:32:19;;;;;;;20.58;12.48;;;;;;;6.37;55.23;100663.97;5053515;28;20116;-69
2023/12/01 10:34:52;;;;;;;23.60;13.57;;;;;;;6.53;54.50;100665.47;5051503;28;20126;-69
2023/12/01 10:37:22;;;;;;;23.75;13.57;;;;;;;6.56;54.79;100662.41;5055074;28;20056;-70
2023/12/01 10:39:55;;;;;;;23.10;13.13;;;;;;;6.46;54.73;100656.63;5050291;28;20046;-69
2023/12/01 10:42:24;;;;;;;24.58;13.70;;;;;;;6.32;55.41;100660.25;5063649;28;20045;-70
2023/12/01 10:44:53;;;;;;;23.20;12.60;;;;;;;6.21;55.27;100661.66;5072794;28;20553;-70
2023/12/01 10:47:22;;;;;;;21.58;12.23;;;;;;;6.13;55.81;100656.47;5060532;28;20132;-69
2023/12/01 10:49:51;;;;;;;24.33;12.77;;;;;;;6.06;55.29;100661.78;5075697;28;20080;-69
2023/12/01 10:52:20;;;;;;;25.50;14.50;;;;;;;6.01;55.56;100652.72;5059670;28;20041;-70
2023/12/01 10:54:48;;;;;;;21.38;12.10;;;;;;;5.89;55.88;100655.09;5064458;28;20067;-69
2023/12/01 10:57:31;;;;;;;21.48;12.25;;;;;;;5.82;56.09;100655.03;5059642;28;20064;-69
2023/12/01 11:00:04;;;;;;;24.70;12.07;;;;;;;5.77;55.96;100648.63;5064914;28;20048;-71
2023/12/01 11:02:34;;;;;;;22.77;12.43;;;;;;;5.71;56.32;100647.56;5060299;28;20053;-70
2023/12/01 11:05:03;;;;;;;24.40;13.38;;;;;;;5.66;56.55;100642.00;5066885;28;20040;-67
2023/12/01 11:07:49;;;;;;;21.77;11.52;;;;;;;5.65;56.91;100647.53;5071403;28;20048;-67
2023/12/01 11:10:27;;;;;;;23.02;13.15;;;;;;;5.64;56.72;100645.88;5074572;28;20056;-66
2023/12/01 11:13:12;;;;;;;23.17;11.95;;;;;;;5.59;57.08;100646.47;5062269;28;20045;-67
2023/12/01 11:15:42;;;;;;;21.08;11.68;;;;;;;5.60;56.62;100647.28;5061967;28;20052;-68
2023/12/01 11:18:11;;;;;;;22.83;11.60;;;;;;;5.56;56.80;100645.00;5065044;28;20057;-67
2023/12/01 11:20:44;;;;;;;20.98;11.60;;;;;;;5.52;56.98;100642.94;5065615;28;20041;-67
2023/12/01 11:23:33;;;;;;;20.08;12.10;;;;;;;5.54;57.29;100646.22;5061119;28;20056;-67
2023/12/01 11:26:07;;;;;;;21.80;11.85;;;;;;;5.53;56.96;100648.06;5066468;28;20071;-67